sensor_id;sensor_type;location;lat;lon;timestamp;temperature;humidity
9537;DHT22;4807;48.024;11.726;2022-10-31T00:02:11;9.00;99.90
9537;DHT22;4807;48.024;11.726;2022-10-31T00:05:20;8.90;99.90
9537;DHT22;4807;48.024;11.726;2022-10-31T00:08:28;9.00;99.90
9537;DHT22;4807;48.024;11.726;2022-10-31T00:11:36;9.00;99.90
9537;DHT22;4807;48.024;11.726;2022-10-31T00:14:44;8.90;99.90
9537;DHT22;4807;48.024;11.726;2022-10-31T00:17:54;8.80;99.90
9537;DHT22;4807;48.024;11.726;2022-10-31T00:21:03;8.70;99.90
9537;DHT22;4807;48.024;11.726;2022-10-31T00:24:12;8.60;99.90
9537;DHT22;4807;48.024;11.726;2022-10-31T00:27:21;8.60;99.90
9537;DHT22;4807;48.024;11.726;2022-10-31T00:30:30;8.70;99.90
9537;DHT22;4807;48.024;11.726;2022-10-31T00:33:40;8.60;99.90
9537;DHT22;4807;48.024;11.726;2022-10-31T00:36:49;8.60;99.90
9537;DHT22;4807;48.024;11.726;2022-10-31T00:39:58;8.60;99.90
9537;DHT22;4807;48.024;11.726;2022-10-31T00:43:06;8.60;99.90
9537;DHT22;4807;48.024;11.726;2022-10-31T00:46:15;8.50;99.90
9537;DHT22;4807;48.024;11.726;2022-10-31T00:49:24;8.60;99.90
9537;DHT22;4807;48.024;11.726;2022-10-31T00:52:33;8.60;99.90
9537;DHT22;4807;48.024;11.726;2022-10-31T00:55:42;8.60;99.90
9537;DHT22;4807;48.024;11.726;2022-10-31T00:58:50;8.50;99.90
9537;DHT22;4807;48.024;11.726;2022-10-31T01:02:00;8.40;99.90
9537;DHT22;4807;48.024;11.726;2022-10-31T01:05:10;8.50;99.90
9537;DHT22;4807;48.024;11.726;2022-10-31T01:08:18;8.50;99.90
9537;DHT22;4807;48.024;11.726;2022-10-31T01:11:30;8.50;99.90
9537;DHT22;4807;48.024;11.726;2022-10-31T01:14:44;10.50;99.90
9537;DHT22;4807;48.024;11.726;2022-10-31T01:17:53;8.60;99.90
9537;DHT22;4807;48.024;11.726;2022-10-31T01:24:24;8.60;99.90
9537;DHT22;4807;48.024;11.726;2022-10-31T01:27:33;8.50;99.90
9537;DHT22;4807;48.024;11.726;2022-10-31T01:30:42;8.50;99.90
9537;DHT22;4807;48.024;11.726;2022-10-31T01:33:51;8.50;99.90
9537;DHT22;4807;48.024;11.726;2022-10-31T01:37:00;8.60;99.90
9537;DHT22;4807;48.024;11.726;2022-10-31T01:40:11;8.60;99.90
9537;DHT22;4807;48.024;11.726;2022-10-31T01:43:19;8.50;99.90
9537;DHT22;4807;48.024;11.726;2022-10-31T01:46:36;8.50;99.90
9537;DHT22;4807;48.024;11.726;2022-10-31T01:49:51;8.30;99.90
9537;DHT22;4807;48.024;11.726;2022-10-31T01:53:02;8.30;99.90
9537;DHT22;4807;48.024;11.726;2022-10-31T01:56:15;8.40;99.90
9537;DHT22;4807;48.024;11.726;2022-10-31T01:59:28;8.40;99.90
9537;DHT22;4807;48.024;11.726;2022-10-31T02:02:40;8.40;99.90
9537;DHT22;4807;48.024;11.726;2022-10-31T02:05:50;8.40;99.90
9537;DHT22;4807;48.024;11.726;2022-10-31T02:09:03;8.40;99.90
9537;DHT22;4807;48.024;11.726;2022-10-31T02:12:15;8.30;99.90
9537;DHT22;4807;48.024;11.726;2022-10-31T02:15:25;8.30;99.90
9537;DHT22;4807;48.024;11.726;2022-10-31T02:18:34;8.30;99.90
9537;DHT22;4807;48.024;11.726;2022-10-31T02:21:45;8.40;99.90
9537;DHT22;4807;48.024;11.726;2022-10-31T02:25:19;8.30;99.90
9537;DHT22;4807;48.024;11.726;2022-10-31T02:29:08;8.10;99.90
9537;DHT22;4807;48.024;11.726;2022-10-31T02:33:08;8.10;99.90
9537;DHT22;4807;48.024;11.726;2022-10-31T02:36:26;8.00;99.90
9537;DHT22;4807;48.024;11.726;2022-10-31T02:39:46;8.00;99.90
9537;DHT22;4807;48.024;11.726;2022-10-31T02:43:23;7.80;99.90
9537;DHT22;4807;48.024;11.726;2022-10-31T02:46:39;7.90;99.90
9537;DHT22;4807;48.024;11.726;2022-10-31T02:50:00;7.90;99.90
9537;DHT22;4807;48.024;11.726;2022-10-31T02:53:15;7.70;99.90
9537;DHT22;4807;48.024;11.726;2022-10-31T02:56:23;7.70;99.90
9537;DHT22;4807;48.024;11.726;2022-10-31T02:59:33;7.70;99.90
9537;DHT22;4807;48.024;11.726;2022-10-31T03:02:55;7.60;99.90
9537;DHT22;4807;48.024;11.726;2022-10-31T03:06:17;7.60;99.90
9537;DHT22;4807;48.024;11.726;2022-10-31T03:09:37;7.60;99.90
9537;DHT22;4807;48.024;11.726;2022-10-31T03:13:03;7.60;99.90
9537;DHT22;4807;48.024;11.726;2022-10-31T03:16:22;7.60;99.90
9537;DHT22;4807;48.024;11.726;2022-10-31T03:19:42;7.50;99.90
9537;DHT22;4807;48.024;11.726;2022-10-31T03:22:56;7.50;99.90
9537;DHT22;4807;48.024;11.726;2022-10-31T03:26:08;7.40;99.90
9537;DHT22;4807;48.024;11.726;2022-10-31T03:29:22;7.50;99.90
9537;DHT22;4807;48.024;11.726;2022-10-31T03:32:37;7.60;99.90
9537;DHT22;4807;48.024;11.726;2022-10-31T03:35:52;7.40;99.90
9537;DHT22;4807;48.024;11.726;2022-10-31T03:39:07;7.30;99.90
9537;DHT22;4807;48.024;11.726;2022-10-31T03:42:22;7.10;99.90
9537;DHT22;4807;48.024;11.726;2022-10-31T03:45:33;7.20;99.90
9537;DHT22;4807;48.024;11.726;2022-10-31T03:48:47;7.00;99.90
9537;DHT22;4807;48.024;11.726;2022-10-31T03:51:58;7.00;99.90
9537;DHT22;4807;48.024;11.726;2022-10-31T03:55:17;7.10;99.90
9537;DHT22;4807;48.024;11.726;2022-10-31T03:58:29;7.20;99.90
9537;DHT22;4807;48.024;11.726;2022-10-31T04:01:47;7.20;99.90
9537;DHT22;4807;48.024;11.726;2022-10-31T04:05:00;7.30;99.90
9537;DHT22;4807;48.024;11.726;2022-10-31T04:08:15;7.30;99.90
9537;DHT22;4807;48.024;11.726;2022-10-31T04:11:31;7.20;99.90
9537;DHT22;4807;48.024;11.726;2022-10-31T04:15:03;7.20;99.90
9537;DHT22;4807;48.024;11.726;2022-10-31T04:18:14;7.20;99.90
9537;DHT22;4807;48.024;11.726;2022-10-31T04:21:27;7.20;99.90
9537;DHT22;4807;48.024;11.726;2022-10-31T04:24:38;7.20;99.90
9537;DHT22;4807;48.024;11.726;2022-10-31T04:27:53;7.10;99.90
9537;DHT22;4807;48.024;11.726;2022-10-31T04:31:03;7.20;99.90
9537;DHT22;4807;48.024;11.726;2022-10-31T04:34:15;7.20;99.90
9537;DHT22;4807;48.024;11.726;2022-10-31T04:37:24;7.10;99.90
9537;DHT22;4807;48.024;11.726;2022-10-31T04:40:32;7.10;99.90
9537;DHT22;4807;48.024;11.726;2022-10-31T04:44:14;7.00;99.90
9537;DHT22;4807;48.024;11.726;2022-10-31T04:47:26;7.00;99.90
9537;DHT22;4807;48.024;11.726;2022-10-31T04:50:35;6.90;99.90
9537;DHT22;4807;48.024;11.726;2022-10-31T04:53:43;6.90;99.90
9537;DHT22;4807;48.024;11.726;2022-10-31T04:57:06;7.00;99.90
9537;DHT22;4807;48.024;11.726;2022-10-31T05:00:21;7.20;99.90
9537;DHT22;4807;48.024;11.726;2022-10-31T05:03:30;6.80;99.90
9537;DHT22;4807;48.024;11.726;2022-10-31T05:06:39;6.70;99.90
9537;DHT22;4807;48.024;11.726;2022-10-31T05:09:47;6.60;99.90
9537;DHT22;4807;48.024;11.726;2022-10-31T05:12:59;6.50;99.90
9537;DHT22;4807;48.024;11.726;2022-10-31T05:16:29;6.40;99.90
9537;DHT22;4807;48.024;11.726;2022-10-31T05:20:01;6.40;99.90
9537;DHT22;4807;48.024;11.726;2022-10-31T05:23:29;6.40;99.90
9537;DHT22;4807;48.024;11.726;2022-10-31T05:26:39;6.50;99.90
9537;DHT22;4807;48.024;11.726;2022-10-31T05:29:48;6.50;99.90
9537;DHT22;4807;48.024;11.726;2022-10-31T05:32:59;6.60;99.90
9537;DHT22;4807;48.024;11.726;2022-10-31T05:36:44;6.50;99.90
9537;DHT22;4807;48.024;11.726;2022-10-31T05:40:01;6.50;99.90
9537;DHT22;4807;48.024;11.726;2022-10-31T05:43:14;6.50;99.90
9537;DHT22;4807;48.024;11.726;2022-10-31T05:46:23;6.50;99.90
9537;DHT22;4807;48.024;11.726;2022-10-31T05:50:09;6.50;99.90
9537;DHT22;4807;48.024;11.726;2022-10-31T05:53:25;6.60;99.90
9537;DHT22;4807;48.024;11.726;2022-10-31T05:56:34;6.60;99.90
9537;DHT22;4807;48.024;11.726;2022-10-31T05:59:44;6.60;99.90
9537;DHT22;4807;48.024;11.726;2022-10-31T06:03:00;6.60;99.90
9537;DHT22;4807;48.024;11.726;2022-10-31T06:06:22;6.50;99.90
9537;DHT22;4807;48.024;11.726;2022-10-31T06:09:31;6.60;99.90
9537;DHT22;4807;48.024;11.726;2022-10-31T06:12:40;6.60;99.90
9537;DHT22;4807;48.024;11.726;2022-10-31T06:16:09;6.60;99.90
9537;DHT22;4807;48.024;11.726;2022-10-31T06:19:19;6.60;99.90
9537;DHT22;4807;48.024;11.726;2022-10-31T06:26:23;6.70;99.90
9537;DHT22;4807;48.024;11.726;2022-10-31T06:29:32;6.80;99.90
9537;DHT22;4807;48.024;11.726;2022-10-31T06:32:47;6.80;99.90
9537;DHT22;4807;48.024;11.726;2022-10-31T06:35:56;6.80;99.90
9537;DHT22;4807;48.024;11.726;2022-10-31T06:39:05;6.90;99.90
9537;DHT22;4807;48.024;11.726;2022-10-31T06:42:16;7.00;99.90
9537;DHT22;4807;48.024;11.726;2022-10-31T06:45:25;7.00;99.90
9537;DHT22;4807;48.024;11.726;2022-10-31T06:48:52;7.10;99.90
9537;DHT22;4807;48.024;11.726;2022-10-31T06:52:19;7.20;99.90
9537;DHT22;4807;48.024;11.726;2022-10-31T06:55:31;7.40;99.90
9537;DHT22;4807;48.024;11.726;2022-10-31T06:58:43;7.70;99.90
9537;DHT22;4807;48.024;11.726;2022-10-31T07:01:55;7.90;99.90
9537;DHT22;4807;48.024;11.726;2022-10-31T07:05:06;8.00;99.90
9537;DHT22;4807;48.024;11.726;2022-10-31T07:08:15;8.00;99.90
9537;DHT22;4807;48.024;11.726;2022-10-31T07:11:27;8.20;99.90
9537;DHT22;4807;48.024;11.726;2022-10-31T07:14:38;8.30;99.90
9537;DHT22;4807;48.024;11.726;2022-10-31T07:17:46;8.40;99.90
9537;DHT22;4807;48.024;11.726;2022-10-31T07:20:58;8.70;99.90
9537;DHT22;4807;48.024;11.726;2022-10-31T07:24:07;8.90;99.90
9537;DHT22;4807;48.024;11.726;2022-10-31T07:27:37;9.00;99.90
9537;DHT22;4807;48.024;11.726;2022-10-31T07:30:53;9.10;99.90
9537;DHT22;4807;48.024;11.726;2022-10-31T07:34:03;9.30;99.90
9537;DHT22;4807;48.024;11.726;2022-10-31T07:37:32;9.50;99.90
9537;DHT22;4807;48.024;11.726;2022-10-31T07:40:42;9.80;99.90
9537;DHT22;4807;48.024;11.726;2022-10-31T07:43:51;10.00;99.90
9537;DHT22;4807;48.024;11.726;2022-10-31T07:47:42;10.40;99.90
9537;DHT22;4807;48.024;11.726;2022-10-31T07:51:11;10.70;99.90
9537;DHT22;4807;48.024;11.726;2022-10-31T07:54:54;11.00;99.90
9537;DHT22;4807;48.024;11.726;2022-10-31T07:58:05;11.30;99.90
9537;DHT22;4807;48.024;11.726;2022-10-31T08:01:18;11.60;99.90
9537;DHT22;4807;48.024;11.726;2022-10-31T08:04:45;11.70;99.90
9537;DHT22;4807;48.024;11.726;2022-10-31T08:08:20;11.80;99.90
9537;DHT22;4807;48.024;11.726;2022-10-31T08:11:28;12.00;99.90
9537;DHT22;4807;48.024;11.726;2022-10-31T08:14:37;12.30;99.90
9537;DHT22;4807;48.024;11.726;2022-10-31T08:17:47;12.70;99.90
9537;DHT22;4807;48.024;11.726;2022-10-31T08:20:57;12.80;99.90
9537;DHT22;4807;48.024;11.726;2022-10-31T08:24:06;12.90;99.90
9537;DHT22;4807;48.024;11.726;2022-10-31T08:27:18;13.00;99.90
9537;DHT22;4807;48.024;11.726;2022-10-31T08:30:28;13.10;99.90
9537;DHT22;4807;48.024;11.726;2022-10-31T08:33:57;13.20;99.90
9537;DHT22;4807;48.024;11.726;2022-10-31T08:37:22;13.40;99.90
9537;DHT22;4807;48.024;11.726;2022-10-31T08:40:33;13.50;99.90
9537;DHT22;4807;48.024;11.726;2022-10-31T08:43:47;13.60;99.90
9537;DHT22;4807;48.024;11.726;2022-10-31T08:46:55;13.80;99.90
9537;DHT22;4807;48.024;11.726;2022-10-31T08:50:04;14.00;99.90
9537;DHT22;4807;48.024;11.726;2022-10-31T08:53:19;14.40;99.90
9537;DHT22;4807;48.024;11.726;2022-10-31T08:56:40;14.40;99.90
9537;DHT22;4807;48.024;11.726;2022-10-31T09:00:05;14.60;99.90
9537;DHT22;4807;48.024;11.726;2022-10-31T09:03:33;14.90;99.90
9537;DHT22;4807;48.024;11.726;2022-10-31T09:06:41;14.80;99.90
9537;DHT22;4807;48.024;11.726;2022-10-31T09:10:12;15.00;99.90
9537;DHT22;4807;48.024;11.726;2022-10-31T09:13:22;15.30;99.90
9537;DHT22;4807;48.024;11.726;2022-10-31T09:16:52;15.30;99.90
9537;DHT22;4807;48.024;11.726;2022-10-31T09:20:09;15.60;99.90
9537;DHT22;4807;48.024;11.726;2022-10-31T09:23:20;15.90;99.90
9537;DHT22;4807;48.024;11.726;2022-10-31T09:26:33;15.80;99.90
9537;DHT22;4807;48.024;11.726;2022-10-31T09:30:07;16.10;99.90
9537;DHT22;4807;48.024;11.726;2022-10-31T09:33:18;16.40;99.90
9537;DHT22;4807;48.024;11.726;2022-10-31T09:36:39;16.30;99.90
9537;DHT22;4807;48.024;11.726;2022-10-31T09:39:53;16.50;99.90
9537;DHT22;4807;48.024;11.726;2022-10-31T09:43:22;16.80;98.60
9537;DHT22;4807;48.024;11.726;2022-10-31T09:46:49;16.80;98.80
9537;DHT22;4807;48.024;11.726;2022-10-31T09:50:15;17.00;97.50
9537;DHT22;4807;48.024;11.726;2022-10-31T09:53:34;17.10;97.50
9537;DHT22;4807;48.024;11.726;2022-10-31T09:56:51;17.20;97.30
9537;DHT22;4807;48.024;11.726;2022-10-31T10:00:04;17.20;97.30
9537;DHT22;4807;48.024;11.726;2022-10-31T10:03:28;17.30;97.10
9537;DHT22;4807;48.024;11.726;2022-10-31T10:06:57;17.30;97.50
9537;DHT22;4807;48.024;11.726;2022-10-31T10:10:29;17.40;96.70
9537;DHT22;4807;48.024;11.726;2022-10-31T10:14:21;17.60;96.40
9537;DHT22;4807;48.024;11.726;2022-10-31T10:17:51;17.70;95.00
9537;DHT22;4807;48.024;11.726;2022-10-31T10:21:18;17.60;95.70
9537;DHT22;4807;48.024;11.726;2022-10-31T10:24:54;17.70;95.50
9537;DHT22;4807;48.024;11.726;2022-10-31T10:28:18;17.70;95.60
9537;DHT22;4807;48.024;11.726;2022-10-31T10:31:35;17.70;95.40
9537;DHT22;4807;48.024;11.726;2022-10-31T10:34:51;17.70;95.40
9537;DHT22;4807;48.024;11.726;2022-10-31T10:38:13;17.80;94.90
9537;DHT22;4807;48.024;11.726;2022-10-31T10:41:32;17.80;94.70
9537;DHT22;4807;48.024;11.726;2022-10-31T10:44:43;18.00;95.40
9537;DHT22;4807;48.024;11.726;2022-10-31T10:48:16;18.10;95.20
9537;DHT22;4807;48.024;11.726;2022-10-31T10:51:53;18.10;93.50
9537;DHT22;4807;48.024;11.726;2022-10-31T10:55:32;18.20;93.90
9537;DHT22;4807;48.024;11.726;2022-10-31T10:58:46;18.20;94.30
9537;DHT22;4807;48.024;11.726;2022-10-31T11:01:56;18.40;94.30
9537;DHT22;4807;48.024;11.726;2022-10-31T11:05:15;18.50;94.10
9537;DHT22;4807;48.024;11.726;2022-10-31T11:08:34;18.70;94.00
9537;DHT22;4807;48.024;11.726;2022-10-31T11:11:43;18.90;93.00
9537;DHT22;4807;48.024;11.726;2022-10-31T11:14:54;19.00;92.70
9537;DHT22;4807;48.024;11.726;2022-10-31T11:18:19;19.10;93.60
9537;DHT22;4807;48.024;11.726;2022-10-31T11:21:35;19.20;92.80
9537;DHT22;4807;48.024;11.726;2022-10-31T11:24:45;19.40;92.80
9537;DHT22;4807;48.024;11.726;2022-10-31T11:28:02;19.30;92.40
9537;DHT22;4807;48.024;11.726;2022-10-31T11:31:12;19.40;92.60
9537;DHT22;4807;48.024;11.726;2022-10-31T11:34:28;19.20;92.60
9537;DHT22;4807;48.024;11.726;2022-10-31T11:37:42;19.10;92.80
9537;DHT22;4807;48.024;11.726;2022-10-31T11:40:56;19.10;93.10
9537;DHT22;4807;48.024;11.726;2022-10-31T11:44:12;19.20;93.30
9537;DHT22;4807;48.024;11.726;2022-10-31T11:47:28;19.40;92.60
9537;DHT22;4807;48.024;11.726;2022-10-31T11:50:40;19.50;92.10
9537;DHT22;4807;48.024;11.726;2022-10-31T11:53:52;19.60;92.30
9537;DHT22;4807;48.024;11.726;2022-10-31T11:57:26;19.70;92.50
9537;DHT22;4807;48.024;11.726;2022-10-31T12:00:38;19.90;92.40
9537;DHT22;4807;48.024;11.726;2022-10-31T12:03:54;20.10;92.10
9537;DHT22;4807;48.024;11.726;2022-10-31T12:07:14;20.20;92.00
9537;DHT22;4807;48.024;11.726;2022-10-31T12:10:28;20.20;91.10
9537;DHT22;4807;48.024;11.726;2022-10-31T12:13:56;20.20;92.30
9537;DHT22;4807;48.024;11.726;2022-10-31T12:17:17;20.20;92.10
9537;DHT22;4807;48.024;11.726;2022-10-31T12:20:41;20.30;91.60
9537;DHT22;4807;48.024;11.726;2022-10-31T12:24:06;20.10;92.00
9537;DHT22;4807;48.024;11.726;2022-10-31T12:27:31;20.00;91.70
9537;DHT22;4807;48.024;11.726;2022-10-31T12:31:01;19.70;91.70
9537;DHT22;4807;48.024;11.726;2022-10-31T12:34:56;19.50;92.70
9537;DHT22;4807;48.024;11.726;2022-10-31T12:38:28;19.40;92.90
9537;DHT22;4807;48.024;11.726;2022-10-31T12:41:51;19.30;93.20
9537;DHT22;4807;48.024;11.726;2022-10-31T12:45:20;19.30;93.60
9537;DHT22;4807;48.024;11.726;2022-10-31T12:52:44;19.30;93.30
9537;DHT22;4807;48.024;11.726;2022-10-31T12:56:21;19.40;93.70
9537;DHT22;4807;48.024;11.726;2022-10-31T12:59:43;19.40;93.80
9537;DHT22;4807;48.024;11.726;2022-10-31T13:02:59;19.50;94.20
9537;DHT22;4807;48.024;11.726;2022-10-31T13:06:18;19.60;93.90
9537;DHT22;4807;48.024;11.726;2022-10-31T13:09:34;19.60;93.60
9537;DHT22;4807;48.024;11.726;2022-10-31T13:12:55;19.60;94.10
9537;DHT22;4807;48.024;11.726;2022-10-31T13:16:13;19.60;94.40
9537;DHT22;4807;48.024;11.726;2022-10-31T13:19:27;19.60;94.10
9537;DHT22;4807;48.024;11.726;2022-10-31T13:22:44;19.60;93.80
9537;DHT22;4807;48.024;11.726;2022-10-31T13:25:57;19.50;94.00
9537;DHT22;4807;48.024;11.726;2022-10-31T13:29:16;19.40;93.90
9537;DHT22;4807;48.024;11.726;2022-10-31T13:32:40;19.30;93.70
9537;DHT22;4807;48.024;11.726;2022-10-31T13:35:54;19.20;93.70
9537;DHT22;4807;48.024;11.726;2022-10-31T13:39:24;19.10;94.30
9537;DHT22;4807;48.024;11.726;2022-10-31T13:42:49;19.10;94.90
9537;DHT22;4807;48.024;11.726;2022-10-31T13:46:22;19.00;94.80
9537;DHT22;4807;48.024;11.726;2022-10-31T13:49:39;18.90;95.40
9537;DHT22;4807;48.024;11.726;2022-10-31T13:52:47;18.80;95.50
9537;DHT22;4807;48.024;11.726;2022-10-31T13:56:11;18.70;95.80
9537;DHT22;4807;48.024;11.726;2022-10-31T13:59:25;18.60;96.30
9537;DHT22;4807;48.024;11.726;2022-10-31T14:02:36;18.50;96.60
9537;DHT22;4807;48.024;11.726;2022-10-31T14:05:52;18.50;97.00
9537;DHT22;4807;48.024;11.726;2022-10-31T14:09:02;18.40;96.90
9537;DHT22;4807;48.024;11.726;2022-10-31T14:12:23;18.40;97.40
9537;DHT22;4807;48.024;11.726;2022-10-31T14:15:36;18.20;97.50
9537;DHT22;4807;48.024;11.726;2022-10-31T14:18:57;18.20;97.80
9537;DHT22;4807;48.024;11.726;2022-10-31T14:22:19;18.10;98.00
9537;DHT22;4807;48.024;11.726;2022-10-31T14:25:30;18.00;98.30
9537;DHT22;4807;48.024;11.726;2022-10-31T14:28:42;18.10;98.20
9537;DHT22;4807;48.024;11.726;2022-10-31T14:31:59;18.20;98.30
9537;DHT22;4807;48.024;11.726;2022-10-31T14:35:17;18.20;98.80
9537;DHT22;4807;48.024;11.726;2022-10-31T14:38:37;18.20;98.60
9537;DHT22;4807;48.024;11.726;2022-10-31T14:42:05;18.20;98.70
9537;DHT22;4807;48.024;11.726;2022-10-31T14:45:31;18.20;98.80
9537;DHT22;4807;48.024;11.726;2022-10-31T14:49:01;18.20;99.10
9537;DHT22;4807;48.024;11.726;2022-10-31T14:52:20;18.20;99.10
9537;DHT22;4807;48.024;11.726;2022-10-31T14:55:29;18.20;99.20
9537;DHT22;4807;48.024;11.726;2022-10-31T14:58:41;18.30;99.40
9537;DHT22;4807;48.024;11.726;2022-10-31T15:01:57;18.20;99.10
9537;DHT22;4807;48.024;11.726;2022-10-31T15:05:11;18.10;99.00
9537;DHT22;4807;48.024;11.726;2022-10-31T15:08:31;18.00;99.50
9537;DHT22;4807;48.024;11.726;2022-10-31T15:11:43;17.80;99.90
9537;DHT22;4807;48.024;11.726;2022-10-31T15:14:52;17.60;99.90
9537;DHT22;4807;48.024;11.726;2022-10-31T15:18:05;17.40;99.90
9537;DHT22;4807;48.024;11.726;2022-10-31T15:21:15;17.30;99.90
9537;DHT22;4807;48.024;11.726;2022-10-31T15:24:27;17.10;99.90
9537;DHT22;4807;48.024;11.726;2022-10-31T15:27:40;17.10;99.90
9537;DHT22;4807;48.024;11.726;2022-10-31T15:30:53;17.00;99.90
9537;DHT22;4807;48.024;11.726;2022-10-31T15:34:19;16.90;99.90
9537;DHT22;4807;48.024;11.726;2022-10-31T15:37:40;16.90;99.90
9537;DHT22;4807;48.024;11.726;2022-10-31T15:41:22;16.70;99.90
9537;DHT22;4807;48.024;11.726;2022-10-31T15:44:37;16.50;99.90
9537;DHT22;4807;48.024;11.726;2022-10-31T15:47:55;16.50;99.90
9537;DHT22;4807;48.024;11.726;2022-10-31T15:51:07;16.30;99.90
9537;DHT22;4807;48.024;11.726;2022-10-31T15:54:15;16.10;99.90
9537;DHT22;4807;48.024;11.726;2022-10-31T15:57:24;15.80;99.90
9537;DHT22;4807;48.024;11.726;2022-10-31T16:00:35;15.60;99.90
9537;DHT22;4807;48.024;11.726;2022-10-31T16:03:57;15.50;99.90
9537;DHT22;4807;48.024;11.726;2022-10-31T16:07:18;15.30;99.90
9537;DHT22;4807;48.024;11.726;2022-10-31T16:10:47;15.10;99.90
9537;DHT22;4807;48.024;11.726;2022-10-31T16:13:58;14.80;99.90
9537;DHT22;4807;48.024;11.726;2022-10-31T16:17:12;14.80;99.90
9537;DHT22;4807;48.024;11.726;2022-10-31T16:20:26;14.60;99.90
9537;DHT22;4807;48.024;11.726;2022-10-31T16:23:47;14.60;99.90
9537;DHT22;4807;48.024;11.726;2022-10-31T16:27:13;14.40;99.90
9537;DHT22;4807;48.024;11.726;2022-10-31T16:30:36;14.30;99.90
9537;DHT22;4807;48.024;11.726;2022-10-31T16:34:02;14.10;99.90
9537;DHT22;4807;48.024;11.726;2022-10-31T16:37:11;13.90;99.90
9537;DHT22;4807;48.024;11.726;2022-10-31T16:40:21;13.80;99.90
9537;DHT22;4807;48.024;11.726;2022-10-31T16:43:30;13.70;99.90
9537;DHT22;4807;48.024;11.726;2022-10-31T16:46:39;13.60;99.90
9537;DHT22;4807;48.024;11.726;2022-10-31T16:49:52;13.50;99.90
9537;DHT22;4807;48.024;11.726;2022-10-31T16:53:01;13.20;99.90
9537;DHT22;4807;48.024;11.726;2022-10-31T16:56:29;13.10;99.90
9537;DHT22;4807;48.024;11.726;2022-10-31T16:59:57;12.90;99.90
9537;DHT22;4807;48.024;11.726;2022-10-31T17:03:08;12.80;99.90
9537;DHT22;4807;48.024;11.726;2022-10-31T17:06:17;12.70;99.90
9537;DHT22;4807;48.024;11.726;2022-10-31T17:09:25;13.00;99.90
9537;DHT22;4807;48.024;11.726;2022-10-31T17:12:35;12.80;99.90
9537;DHT22;4807;48.024;11.726;2022-10-31T17:15:48;12.50;99.90
9537;DHT22;4807;48.024;11.726;2022-10-31T17:18:58;12.40;99.90
9537;DHT22;4807;48.024;11.726;2022-10-31T17:22:09;12.20;99.90
9537;DHT22;4807;48.024;11.726;2022-10-31T17:25:20;12.00;99.90
9537;DHT22;4807;48.024;11.726;2022-10-31T17:28:32;11.80;99.90
9537;DHT22;4807;48.024;11.726;2022-10-31T17:31:46;11.70;99.90
9537;DHT22;4807;48.024;11.726;2022-10-31T17:34:56;11.70;99.90
9537;DHT22;4807;48.024;11.726;2022-10-31T17:38:04;11.60;99.90
9537;DHT22;4807;48.024;11.726;2022-10-31T17:41:12;11.50;99.90
9537;DHT22;4807;48.024;11.726;2022-10-31T17:44:22;11.40;99.90
9537;DHT22;4807;48.024;11.726;2022-10-31T17:47:31;11.40;99.90
9537;DHT22;4807;48.024;11.726;2022-10-31T17:50:40;11.40;99.90
9537;DHT22;4807;48.024;11.726;2022-10-31T17:53:48;11.40;99.90
9537;DHT22;4807;48.024;11.726;2022-10-31T17:56:57;11.40;99.90
9537;DHT22;4807;48.024;11.726;2022-10-31T18:00:14;11.20;99.90
9537;DHT22;4807;48.024;11.726;2022-10-31T18:03:25;11.00;99.90
9537;DHT22;4807;48.024;11.726;2022-10-31T18:06:34;10.90;99.90
9537;DHT22;4807;48.024;11.726;2022-10-31T18:09:52;11.10;99.90
9537;DHT22;4807;48.024;11.726;2022-10-31T18:13:01;10.70;99.90
9537;DHT22;4807;48.024;11.726;2022-10-31T18:16:16;10.70;99.90
9537;DHT22;4807;48.024;11.726;2022-10-31T18:19:25;10.70;99.90
9537;DHT22;4807;48.024;11.726;2022-10-31T18:22:33;10.60;99.90
9537;DHT22;4807;48.024;11.726;2022-10-31T18:25:42;10.60;99.90
9537;DHT22;4807;48.024;11.726;2022-10-31T18:28:50;10.50;99.90
9537;DHT22;4807;48.024;11.726;2022-10-31T18:32:00;10.50;99.90
9537;DHT22;4807;48.024;11.726;2022-10-31T18:35:14;10.40;99.90
9537;DHT22;4807;48.024;11.726;2022-10-31T18:38:23;10.40;99.90
9537;DHT22;4807;48.024;11.726;2022-10-31T18:41:31;10.40;99.90
9537;DHT22;4807;48.024;11.726;2022-10-31T18:44:41;10.40;99.90
9537;DHT22;4807;48.024;11.726;2022-10-31T18:47:51;10.40;99.90
9537;DHT22;4807;48.024;11.726;2022-10-31T18:51:02;10.20;99.90
9537;DHT22;4807;48.024;11.726;2022-10-31T18:54:10;10.10;99.90
9537;DHT22;4807;48.024;11.726;2022-10-31T18:57:19;10.10;99.90
9537;DHT22;4807;48.024;11.726;2022-10-31T19:00:27;10.10;99.90
9537;DHT22;4807;48.024;11.726;2022-10-31T19:03:38;10.00;99.90
9537;DHT22;4807;48.024;11.726;2022-10-31T19:06:47;9.90;99.90
9537;DHT22;4807;48.024;11.726;2022-10-31T19:09:55;9.80;99.90
9537;DHT22;4807;48.024;11.726;2022-10-31T19:13:04;9.80;99.90
9537;DHT22;4807;48.024;11.726;2022-10-31T19:16:14;9.70;99.90
9537;DHT22;4807;48.024;11.726;2022-10-31T19:19:25;9.60;99.90
9537;DHT22;4807;48.024;11.726;2022-10-31T19:22:34;9.60;99.90
9537;DHT22;4807;48.024;11.726;2022-10-31T19:25:42;9.50;99.90
9537;DHT22;4807;48.024;11.726;2022-10-31T19:28:56;9.50;99.90
9537;DHT22;4807;48.024;11.726;2022-10-31T19:32:04;9.40;99.90
9537;DHT22;4807;48.024;11.726;2022-10-31T19:35:14;9.30;99.90
9537;DHT22;4807;48.024;11.726;2022-10-31T19:38:23;9.20;99.90
9537;DHT22;4807;48.024;11.726;2022-10-31T19:41:31;7.50;99.90
9537;DHT22;4807;48.024;11.726;2022-10-31T19:44:40;9.10;99.90
9537;DHT22;4807;48.024;11.726;2022-10-31T19:47:49;9.10;99.90
9537;DHT22;4807;48.024;11.726;2022-10-31T19:51:03;9.00;99.90
9537;DHT22;4807;48.024;11.726;2022-10-31T19:54:13;9.00;99.90
9537;DHT22;4807;48.024;11.726;2022-10-31T19:57:22;9.00;99.90
9537;DHT22;4807;48.024;11.726;2022-10-31T20:00:50;8.90;99.90
9537;DHT22;4807;48.024;11.726;2022-10-31T20:03:59;8.80;99.90
9537;DHT22;4807;48.024;11.726;2022-10-31T20:07:09;8.90;99.90
9537;DHT22;4807;48.024;11.726;2022-10-31T20:10:18;8.80;99.90
9537;DHT22;4807;48.024;11.726;2022-10-31T20:13:27;8.90;99.90
9537;DHT22;4807;48.024;11.726;2022-10-31T20:16:37;8.80;99.90
9537;DHT22;4807;48.024;11.726;2022-10-31T20:19:46;8.80;99.90
9537;DHT22;4807;48.024;11.726;2022-10-31T20:22:58;8.80;99.90
9537;DHT22;4807;48.024;11.726;2022-10-31T20:26:09;9.00;99.90
9537;DHT22;4807;48.024;11.726;2022-10-31T20:33:04;8.70;99.90
9537;DHT22;4807;48.024;11.726;2022-10-31T20:36:13;9.00;99.90
9537;DHT22;4807;48.024;11.726;2022-10-31T20:39:26;8.90;99.90
9537;DHT22;4807;48.024;11.726;2022-10-31T20:42:35;10.00;99.90
9537;DHT22;4807;48.024;11.726;2022-10-31T20:45:44;8.30;99.90
9537;DHT22;4807;48.024;11.726;2022-10-31T20:48:53;8.10;99.90
9537;DHT22;4807;48.024;11.726;2022-10-31T20:52:01;8.00;99.90
9537;DHT22;4807;48.024;11.726;2022-10-31T20:55:11;7.90;99.90
9537;DHT22;4807;48.024;11.726;2022-10-31T20:58:20;7.90;99.90
9537;DHT22;4807;48.024;11.726;2022-10-31T21:01:29;8.00;99.90
9537;DHT22;4807;48.024;11.726;2022-10-31T21:04:39;8.00;99.90
9537;DHT22;4807;48.024;11.726;2022-10-31T21:07:47;8.00;99.90
9537;DHT22;4807;48.024;11.726;2022-10-31T21:11:05;8.00;99.90
9537;DHT22;4807;48.024;11.726;2022-10-31T21:14:15;7.90;99.90
9537;DHT22;4807;48.024;11.726;2022-10-31T21:17:24;7.90;99.90
9537;DHT22;4807;48.024;11.726;2022-10-31T21:20:32;7.90;99.90